createdAt,value
2023-04-16T00:00:42.882Z,240.50
2023-04-16T00:01:43.109Z,219.40
2023-04-16T00:02:43.381Z,238.00
2023-04-16T00:03:43.775Z,250.70
2023-04-16T00:04:43.849Z,238.70
2023-04-16T00:05:43.914Z,237.80
2023-04-16T00:06:44.106Z,259.50
2023-04-16T00:07:44.316Z,246.30
2023-04-16T00:08:44.534Z,252.60
2023-04-16T00:09:44.696Z,248.20
2023-04-16T00:10:44.998Z,245.40
2023-04-16T00:11:45.198Z,223.50
2023-04-16T00:12:45.378Z,240.50
2023-04-16T00:13:45.559Z,237.00
2023-04-16T00:14:45.772Z,231.90
2023-04-16T00:15:45.958Z,218.90
2023-04-16T00:16:46.315Z,211.10
2023-04-16T00:17:46.493Z,228.60
2023-04-16T00:18:46.692Z,219.10
2023-04-16T00:19:46.855Z,228.70
2023-04-16T00:20:47.158Z,237.20
2023-04-16T00:21:47.355Z,232.70
2023-04-16T00:22:47.601Z,229.20
2023-04-16T00:23:47.819Z,225.90
2023-04-16T00:24:48.000Z,247.00
2023-04-16T00:25:48.221Z,243.70
2023-04-16T00:26:48.406Z,234.30
2023-04-16T00:27:48.589Z,258.40
2023-04-16T00:28:48.808Z,248.30
2023-04-16T00:29:48.973Z,255.20
2023-04-16T00:30:49.211Z,268.00
2023-04-16T00:31:49.377Z,245.30
2023-04-16T00:32:49.614Z,272.20
2023-04-16T00:33:49.768Z,279.80
2023-04-16T00:34:49.970Z,257.80
2023-04-16T00:35:50.176Z,240.20
2023-04-16T00:36:50.366Z,216.90
2023-04-16T00:37:50.565Z,227.40
2023-04-16T00:38:50.853Z,239.10
2023-04-16T00:39:51.090Z,246.70
2023-04-16T00:40:51.258Z,249.70
2023-04-16T00:41:51.444Z,242.80
2023-04-16T00:42:51.785Z,241.40
2023-04-16T00:43:51.973Z,256.10
2023-04-16T00:44:52.151Z,254.90
2023-04-16T00:45:52.388Z,264.00
2023-04-16T00:46:52.569Z,246.60
2023-04-16T00:47:52.870Z,243.60
2023-04-16T00:48:52.966Z,258.10
2023-04-16T00:49:53.149Z,270.20
2023-04-16T00:50:53.350Z,268.30
2023-04-16T00:51:53.547Z,266.30
2023-04-16T00:52:53.744Z,230.20
2023-04-16T00:53:53.950Z,250.00
2023-04-16T00:54:55.172Z,253.50
2023-04-16T00:55:54.380Z,244.70
2023-04-16T00:56:54.602Z,226.70
2023-04-16T00:57:54.768Z,262.60
2023-04-16T00:58:54.936Z,250.60
2023-04-16T00:59:55.234Z,248.50
2023-04-16T01:00:55.434Z,247.00
2023-04-16T01:01:55.719Z,243.90
2023-04-16T01:02:55.986Z,271.20
2023-04-16T01:03:56.117Z,256.30
2023-04-16T01:04:56.211Z,254.90
2023-04-16T01:05:56.509Z,254.70
2023-04-16T01:06:56.686Z,244.40
2023-04-16T01:07:56.896Z,233.30
2023-04-16T01:08:57.072Z,247.20
2023-04-16T01:09:57.270Z,248.60
2023-04-16T01:10:57.447Z,240.50
2023-04-16T01:11:57.645Z,248.70
2023-04-16T01:12:57.847Z,228.70
2023-04-16T01:13:58.017Z,250.00
2023-04-16T01:14:58.228Z,234.50
2023-04-16T01:15:58.581Z,255.30
2023-04-16T01:16:58.745Z,250.90
2023-04-16T01:17:58.983Z,258.30
2023-04-16T01:18:59.154Z,241.60
2023-04-16T01:19:59.348Z,238.40
2023-04-16T01:20:59.525Z,246.80
2023-04-16T01:21:59.929Z,252.60
2023-04-16T01:23:00.034Z,267.10
2023-04-16T01:24:00.224Z,243.50
2023-04-16T01:25:00.462Z,249.80
2023-04-16T01:26:00.629Z,270.30
2023-04-16T01:27:00.866Z,234.30
2023-04-16T01:28:01.117Z,261.70
2023-04-16T01:29:01.290Z,246.30
2023-04-16T01:30:01.532Z,248.30
2023-04-16T01:31:01.787Z,251.50
2023-04-16T01:32:01.995Z,260.70
2023-04-16T01:33:02.293Z,232.40
2023-04-16T01:34:02.444Z,239.70
2023-04-16T01:35:02.626Z,242.80
2023-04-16T01:36:03.011Z,273.60
2023-04-16T01:37:03.191Z,250.00
2023-04-16T01:38:03.398Z,229.60
2023-04-16T01:39:03.576Z,225.40
2023-04-16T01:40:03.906Z,257.90
2023-04-16T01:41:04.144Z,253.30
2023-04-16T01:42:04.346Z,246.90
2023-04-16T01:43:04.553Z,258.40
2023-04-16T01:44:04.747Z,243.50
2023-04-16T01:45:04.921Z,234.50
2023-04-16T01:46:05.264Z,224.00
2023-04-16T01:47:05.484Z,237.00
2023-04-16T01:48:05.740Z,245.20
2023-04-16T01:49:05.853Z,245.10
2023-04-16T01:50:06.048Z,230.30
2023-04-16T01:51:06.218Z,246.60
2023-04-16T01:52:06.617Z,260.60
2023-04-16T01:53:06.772Z,263.10
2023-04-16T01:54:06.972Z,267.80
2023-04-16T01:55:07.165Z,238.90
2023-04-16T01:56:07.397Z,227.20
2023-04-16T01:57:07.614Z,233.40
2023-04-16T01:58:07.842Z,239.30
2023-04-16T01:59:08.321Z,234.90
2023-04-16T02:00:08.280Z,214.20
2023-04-16T02:01:08.476Z,239.10
2023-04-16T02:02:08.881Z,234.30
2023-04-16T02:03:09.163Z,240.70
2023-04-16T02:04:09.455Z,231.00
2023-04-16T02:05:09.541Z,252.30
2023-04-16T02:06:09.784Z,236.20
2023-04-16T02:07:09.963Z,242.80
2023-04-16T02:08:10.177Z,243.80
2023-04-16T02:09:10.525Z,236.50
2023-04-16T02:10:10.573Z,230.10
2023-04-16T02:11:10.768Z,258.90
2023-04-16T02:12:10.960Z,253.50
2023-04-16T02:13:11.481Z,224.40
2023-04-16T02:14:11.335Z,221.60
2023-04-16T02:15:11.501Z,216.30
2023-04-16T02:16:11.714Z,231.20
2023-04-16T02:17:11.868Z,216.30
2023-04-16T02:18:12.199Z,218.90
2023-04-16T02:19:12.807Z,215.80
2023-04-16T02:20:12.612Z,216.20
2023-04-16T02:21:13.625Z,230.00
2023-04-16T02:22:13.047Z,227.80
2023-04-16T02:23:13.242Z,207.70
2023-04-16T02:24:13.428Z,219.40
2023-04-16T02:25:13.616Z,216.30
2023-04-16T02:26:13.790Z,212.70
2023-04-16T02:27:14.087Z,237.00
2023-04-16T02:28:14.368Z,194.50
2023-04-16T02:29:14.549Z,200.70
2023-04-16T02:30:14.785Z,210.40
2023-04-16T02:31:14.946Z,198.80
2023-04-16T02:32:15.144Z,201.60
2023-04-16T02:33:15.373Z,212.10
2023-04-16T02:34:15.543Z,218.40
2023-04-16T02:35:15.723Z,199.20
2023-04-16T02:36:15.939Z,197.40
2023-04-16T02:37:16.140Z,203.10
2023-04-16T02:38:16.387Z,221.50
2023-04-16T02:39:16.522Z,208.00
2023-04-16T02:40:16.852Z,217.00
2023-04-16T02:41:17.038Z,210.80
2023-04-16T02:42:17.300Z,221.90
2023-04-16T02:43:17.510Z,207.50
2023-04-16T02:44:17.681Z,227.10
2023-04-16T02:45:17.866Z,197.60
2023-04-16T02:46:18.232Z,195.20
2023-04-16T02:47:18.289Z,228.20
2023-04-16T02:48:18.483Z,235.60
2023-04-16T02:49:18.685Z,204.00
2023-04-16T02:50:18.853Z,220.50
2023-04-16T02:51:19.033Z,228.10
2023-04-16T02:52:19.231Z,218.60
2023-04-16T02:53:19.425Z,212.40
2023-04-16T02:54:19.607Z,244.90
2023-04-16T02:55:19.854Z,231.80
2023-04-16T02:56:20.041Z,236.20
2023-04-16T02:57:20.195Z,217.80
2023-04-16T02:58:20.510Z,222.40
2023-04-16T02:59:20.670Z,237.30
2023-04-16T03:00:20.963Z,226.90
2023-04-16T03:01:21.162Z,235.60
2023-04-16T03:02:21.371Z,218.60
2023-04-16T03:03:21.604Z,217.10
2023-04-16T03:04:21.840Z,233.00
2023-04-16T03:05:22.023Z,249.20
2023-04-16T03:06:22.297Z,226.30
2023-04-16T03:07:22.587Z,229.30
2023-04-16T03:08:22.888Z,231.90
2023-04-16T03:09:23.062Z,255.00
2023-04-16T03:10:23.268Z,243.90
2023-04-16T03:11:23.429Z,249.10
2023-04-16T03:12:23.736Z,252.30
2023-04-16T03:13:23.896Z,257.10
2023-04-16T03:14:24.181Z,253.90
2023-04-16T03:15:24.439Z,263.50
2023-04-16T03:16:24.730Z,255.90
2023-04-16T03:17:24.956Z,270.70
2023-04-16T03:18:25.089Z,277.10
2023-04-16T03:19:25.266Z,282.20
2023-04-16T03:20:25.472Z,257.50
2023-04-16T03:21:25.657Z,271.40
2023-04-16T03:22:25.930Z,258.00
2023-04-16T03:23:26.099Z,280.60
2023-04-16T03:24:26.464Z,268.60
2023-04-16T03:25:26.613Z,281.20
2023-04-16T03:26:26.924Z,267.10
2023-04-16T03:27:27.105Z,254.80
2023-04-16T03:28:27.496Z,275.40
2023-04-16T03:29:27.664Z,308.70
2023-04-16T03:30:27.844Z,301.10
2023-04-16T03:31:28.058Z,269.90
2023-04-16T03:32:28.347Z,250.70
2023-04-16T03:33:28.426Z,268.40
2023-04-16T03:34:28.635Z,281.90
2023-04-16T03:35:28.862Z,291.20
2023-04-16T03:36:29.157Z,301.00
2023-04-16T03:37:29.296Z,280.10
2023-04-16T03:38:29.515Z,297.90
2023-04-16T03:39:29.777Z,309.10
2023-04-16T03:40:30.021Z,287.90
2023-04-16T03:41:30.277Z,283.40
2023-04-16T03:42:30.496Z,288.00
2023-04-16T03:43:30.745Z,297.40
2023-04-16T03:44:30.998Z,289.70
2023-04-16T03:45:31.273Z,277.90
2023-04-16T03:46:31.609Z,291.90
2023-04-16T03:47:31.805Z,296.70
2023-04-16T03:48:31.925Z,279.20
2023-04-16T03:49:32.166Z,280.10
2023-04-16T03:50:32.389Z,293.70
2023-04-16T03:51:32.575Z,295.00
2023-04-16T03:52:32.891Z,301.30
2023-04-16T03:53:33.070Z,275.90
2023-04-16T03:54:33.257Z,274.60
2023-04-16T03:55:33.445Z,268.50
2023-04-16T03:56:33.629Z,275.70
2023-04-16T03:57:33.800Z,252.00
2023-04-16T03:58:34.117Z,275.80
2023-04-16T03:59:34.291Z,280.50
2023-04-16T04:00:34.486Z,256.90
2023-04-16T04:01:34.722Z,265.80
2023-04-16T04:02:35.072Z,244.00
2023-04-16T04:03:35.275Z,250.10
2023-04-16T04:04:35.482Z,255.10
2023-04-16T04:05:35.588Z,243.20
2023-04-16T04:06:35.913Z,240.10
2023-04-16T04:07:36.119Z,241.20
2023-04-16T04:08:36.456Z,249.40
2023-04-16T04:09:36.652Z,248.30
2023-04-16T04:10:36.958Z,217.60
2023-04-16T04:11:37.139Z,230.10
2023-04-16T04:12:37.456Z,223.00
2023-04-16T04:13:37.674Z,229.00
2023-04-16T04:14:37.853Z,236.40
2023-04-16T04:15:38.067Z,248.50
2023-04-16T04:16:38.365Z,217.70
2023-04-16T04:17:38.690Z,230.10
2023-04-16T04:18:38.797Z,244.60
2023-04-16T04:19:44.509Z,240.30
2023-04-16T04:20:40.287Z,225.30
2023-04-16T04:21:39.479Z,208.20
2023-04-16T04:22:39.686Z,201.90
2023-04-16T04:23:39.888Z,220.70
2023-04-16T04:24:40.127Z,216.00
2023-04-16T04:25:40.338Z,224.20
2023-04-16T04:26:40.586Z,268.50
2023-04-16T04:27:40.783Z,227.80
2023-04-16T04:28:40.999Z,221.80
2023-04-16T04:29:41.195Z,241.40
2023-04-16T04:30:41.411Z,217.80
2023-04-16T04:31:41.667Z,245.20
2023-04-16T04:32:41.853Z,243.80
2023-04-16T04:33:42.036Z,239.50
2023-04-16T04:34:42.239Z,231.20
2023-04-16T04:35:42.453Z,248.00
2023-04-16T04:36:42.668Z,242.00
2023-04-16T04:37:42.906Z,239.80
2023-04-16T04:38:43.123Z,234.20
2023-04-16T04:39:43.315Z,229.40
2023-04-16T04:40:43.522Z,255.20
2023-04-16T04:41:43.713Z,255.90
2023-04-16T04:42:43.927Z,253.40
2023-04-16T04:43:44.182Z,233.70
2023-04-16T04:44:44.348Z,245.10
2023-04-16T04:45:44.598Z,248.90
2023-04-16T04:46:44.781Z,235.50
2023-04-16T04:47:45.026Z,254.00
2023-04-16T04:48:45.220Z,251.40
2023-04-16T04:49:45.434Z,248.70
2023-04-16T04:50:45.632Z,230.50
2023-04-16T04:51:45.852Z,262.00
2023-04-16T04:52:54.051Z,254.10
2023-04-16T04:53:46.267Z,247.60
2023-04-16T04:54:46.538Z,250.40
2023-04-16T04:55:46.714Z,249.40
2023-04-16T04:56:46.949Z,246.00
2023-04-16T04:57:47.131Z,258.00
2023-04-16T04:58:47.373Z,287.80
2023-04-16T04:59:47.549Z,277.50
2023-04-16T05:00:47.895Z,289.50
2023-04-16T05:01:48.084Z,287.80
2023-04-16T05:02:48.371Z,291.10
2023-04-16T05:03:48.558Z,315.50
2023-04-16T05:04:48.731Z,300.20
2023-04-16T05:05:48.913Z,307.00
2023-04-16T05:06:49.135Z,293.00
2023-04-16T05:07:49.353Z,297.10
2023-04-16T05:08:49.561Z,303.30
2023-04-16T05:09:49.798Z,335.80
2023-04-16T05:10:49.981Z,272.90
2023-04-16T05:11:50.183Z,307.00
2023-04-16T05:12:50.390Z,279.70
2023-04-16T05:13:50.595Z,305.20
2023-04-16T05:14:50.821Z,283.30
2023-04-16T05:15:51.021Z,284.20
2023-04-16T05:16:51.267Z,281.90
2023-04-16T05:17:51.565Z,304.80
2023-04-16T05:18:51.789Z,315.50
2023-04-16T05:19:51.998Z,294.00
2023-04-16T05:20:52.183Z,298.40
2023-04-16T05:21:52.386Z,292.40
2023-04-16T05:22:52.590Z,275.60
2023-04-16T05:23:52.809Z,280.00
2023-04-16T05:24:53.036Z,281.40
2023-04-16T05:25:53.235Z,260.00
2023-04-16T05:26:53.454Z,275.30
2023-04-16T05:27:53.653Z,289.10
2023-04-16T05:28:53.864Z,273.40
2023-04-16T05:29:54.080Z,261.90
2023-04-16T05:30:54.331Z,277.60
2023-04-16T05:31:54.493Z,277.40
2023-04-16T05:32:54.760Z,268.80
2023-04-16T05:33:55.019Z,258.80
2023-04-16T05:34:55.226Z,282.20
2023-04-16T05:35:55.434Z,257.50
2023-04-16T05:36:55.648Z,258.40
2023-04-16T05:37:55.838Z,261.50
2023-04-16T05:38:56.121Z,274.80
2023-04-16T05:39:56.335Z,297.00
2023-04-16T05:40:56.538Z,291.50
2023-04-16T05:41:56.748Z,308.60
2023-04-16T05:42:56.963Z,284.30
2023-04-16T05:43:57.382Z,278.40
2023-04-16T05:44:57.505Z,248.30
2023-04-16T05:45:57.777Z,258.40
2023-04-16T05:46:57.965Z,273.70
2023-04-16T05:47:58.225Z,271.40
2023-04-16T05:48:58.410Z,268.90
2023-04-16T05:49:58.609Z,286.10
2023-04-16T05:50:58.821Z,297.40
2023-04-16T05:51:59.016Z,322.30
2023-04-16T05:52:59.235Z,310.70
2023-04-16T05:53:59.440Z,280.40
2023-04-16T05:54:59.703Z,296.30
2023-04-16T05:55:59.896Z,285.80
2023-04-16T05:57:00.131Z,269.00
2023-04-16T05:58:00.322Z,284.80
2023-04-16T05:59:00.524Z,302.50
2023-04-16T06:00:00.758Z,312.10
2023-04-16T06:01:01.016Z,294.00
2023-04-16T06:02:01.230Z,293.80
2023-04-16T06:03:01.562Z,280.40
2023-04-16T06:04:01.788Z,269.20
2023-04-16T06:05:01.965Z,290.00
2023-04-16T06:06:02.085Z,314.90
2023-04-16T06:07:02.327Z,304.30
2023-04-16T06:08:02.526Z,271.70
2023-04-16T06:09:02.736Z,261.70
2023-04-16T06:10:02.962Z,275.40
2023-04-16T06:11:03.140Z,301.20
2023-04-16T06:12:03.351Z,276.90
2023-04-16T06:13:03.521Z,274.30
2023-04-16T06:14:03.728Z,298.90
2023-04-16T06:15:03.907Z,272.10
2023-04-16T06:16:04.125Z,260.40
2023-04-16T06:17:04.310Z,309.20
2023-04-16T06:18:04.563Z,272.40
2023-04-16T06:19:04.750Z,270.30
2023-04-16T06:20:04.966Z,278.60
2023-04-16T06:21:05.168Z,288.10
2023-04-16T06:22:05.376Z,276.30
2023-04-16T06:23:05.564Z,302.00
2023-04-16T06:24:05.773Z,302.50
2023-04-16T06:25:05.976Z,268.70
2023-04-16T06:26:06.175Z,258.60
2023-04-16T06:27:06.377Z,252.00
2023-04-16T06:28:06.592Z,230.80
2023-04-16T06:29:06.877Z,256.10
2023-04-16T06:30:07.050Z,270.50
2023-04-16T06:31:07.264Z,237.90
2023-04-16T06:32:07.448Z,254.30
2023-04-16T06:33:07.661Z,252.20
2023-04-16T06:34:07.877Z,253.20
2023-04-16T06:35:08.087Z,235.50
2023-04-16T06:36:08.403Z,250.40
2023-04-16T06:37:10.673Z,244.80
2023-04-16T06:38:08.864Z,243.60
2023-04-16T06:39:09.668Z,241.30
2023-04-16T06:40:09.342Z,268.80
2023-04-16T06:41:09.556Z,229.70
2023-04-16T06:42:09.717Z,234.80
2023-04-16T06:43:10.872Z,226.60
2023-04-16T06:44:10.172Z,206.40
2023-04-16T06:45:10.360Z,199.40
2023-04-16T06:46:10.562Z,198.00
2023-04-16T06:47:10.777Z,229.20
2023-04-16T06:48:11.033Z,225.90
2023-04-16T06:49:11.555Z,214.10
2023-04-16T06:50:11.491Z,226.30
2023-04-16T06:51:11.674Z,216.60
2023-04-16T06:52:11.986Z,200.90
2023-04-16T06:53:12.182Z,223.80
2023-04-16T06:54:12.377Z,227.40
2023-04-16T06:55:12.564Z,200.30
2023-04-16T06:56:12.762Z,216.80
2023-04-16T06:57:12.924Z,207.70
2023-04-16T06:58:13.235Z,212.90
2023-04-16T06:59:13.438Z,240.40
2023-04-16T07:00:13.624Z,210.80
2023-04-16T07:01:13.841Z,216.80
2023-04-16T07:02:14.070Z,220.60
2023-04-16T07:03:14.394Z,186.50
2023-04-16T07:04:14.575Z,215.50
2023-04-16T07:05:14.714Z,214.80
2023-04-16T07:06:15.013Z,235.50
2023-04-16T07:07:15.201Z,244.10
2023-04-16T07:08:15.382Z,227.10
2023-04-16T07:09:15.616Z,233.50
2023-04-16T07:10:15.799Z,213.10
2023-04-16T07:11:15.993Z,253.60
2023-04-16T07:12:16.299Z,229.50
2023-04-16T07:13:16.476Z,229.60
2023-04-16T07:14:16.700Z,230.20
2023-04-16T07:15:16.873Z,240.80
2023-04-16T07:16:17.201Z,242.20
2023-04-16T07:17:17.365Z,212.80
2023-04-16T07:18:18.779Z,218.70
2023-04-16T07:19:17.728Z,222.20
2023-04-16T07:20:17.913Z,215.50
2023-04-16T07:21:18.091Z,250.70
2023-04-16T07:22:18.382Z,208.80
2023-04-16T07:23:18.558Z,218.20
2023-04-16T07:24:18.908Z,208.20
2023-04-16T07:25:19.070Z,220.00
2023-04-16T07:26:19.404Z,232.90
2023-04-16T07:27:19.580Z,197.10
2023-04-16T07:28:19.856Z,218.90
2023-04-16T07:29:20.148Z,210.20
2023-04-16T07:30:20.320Z,214.30
2023-04-16T07:31:20.626Z,224.90
2023-04-16T07:32:21.000Z,237.20
2023-04-16T07:33:21.044Z,225.90
2023-04-16T07:34:21.251Z,195.60
2023-04-16T07:35:21.430Z,222.00
2023-04-16T07:36:21.624Z,207.30
2023-04-16T07:37:21.794Z,206.80
2023-04-16T07:38:22.133Z,220.40
2023-04-16T07:39:22.336Z,206.50
2023-04-16T07:40:22.576Z,218.40
2023-04-16T07:41:22.740Z,222.60
2023-04-16T07:42:22.953Z,224.20
2023-04-16T07:43:23.132Z,214.40
2023-04-16T07:44:23.440Z,210.90
2023-04-16T07:45:23.635Z,190.00
2023-04-16T07:46:25.010Z,189.20
2023-04-16T07:47:24.111Z,177.40
2023-04-16T07:48:24.377Z,219.10
2023-04-16T07:49:24.577Z,203.30
2023-04-16T07:50:24.850Z,195.40
2023-04-16T07:51:25.116Z,193.20
2023-04-16T07:52:25.341Z,212.10
2023-04-16T07:53:25.545Z,209.50
2023-04-16T07:54:27.340Z,186.10
2023-04-16T07:55:25.981Z,183.90
2023-04-16T07:56:26.264Z,199.80
2023-04-16T07:57:26.447Z,207.50
2023-04-16T07:58:26.742Z,204.20
2023-04-16T07:59:27.322Z,220.80
2023-04-16T08:00:27.160Z,220.50
2023-04-16T08:01:27.349Z,197.10
2023-04-16T08:02:27.728Z,212.40
2023-04-16T08:03:28.015Z,204.90
2023-04-16T08:04:28.246Z,197.30
2023-04-16T08:05:28.288Z,201.90
2023-04-16T08:06:28.419Z,188.10
2023-04-16T08:07:28.602Z,189.40
2023-04-16T08:08:28.896Z,187.30
2023-04-16T08:09:29.119Z,192.80
2023-04-16T08:10:29.312Z,189.40
2023-04-16T08:11:29.473Z,201.80
2023-04-16T08:12:29.775Z,183.90
2023-04-16T08:13:32.324Z,181.90
2023-04-16T08:14:30.206Z,185.80
2023-04-16T08:15:30.370Z,185.20
2023-04-16T08:16:30.696Z,187.30
2023-04-16T08:17:30.893Z,188.50
2023-04-16T08:18:31.169Z,193.10
2023-04-16T08:19:31.374Z,199.20
2023-04-16T08:20:31.555Z,206.30
2023-04-16T08:21:31.720Z,201.90
2023-04-16T08:22:32.018Z,199.80
2023-04-16T08:23:32.196Z,194.60
2023-04-16T08:24:32.397Z,169.40
2023-04-16T08:25:32.575Z,183.50
2023-04-16T08:26:32.787Z,201.90
2023-04-16T08:27:32.969Z,175.00
2023-04-16T08:28:33.155Z,160.40
2023-04-16T08:29:33.353Z,172.50
2023-04-16T08:30:33.549Z,174.10
2023-04-16T08:31:33.819Z,157.10
2023-04-16T08:32:34.022Z,152.80
2023-04-16T08:33:34.218Z,171.40
2023-04-16T08:34:34.413Z,163.10
2023-04-16T08:35:34.582Z,170.70
2023-04-16T08:36:34.879Z,184.00
2023-04-16T08:37:35.095Z,169.90
2023-04-16T08:38:35.295Z,163.20
2023-04-16T08:39:35.475Z,159.90
2023-04-16T08:40:35.676Z,168.90
2023-04-16T08:41:35.861Z,191.80
2023-04-16T08:42:36.065Z,186.00
2023-04-16T08:43:36.243Z,184.90
2023-04-16T08:44:36.558Z,180.50
2023-04-16T08:45:36.736Z,197.30
2023-04-16T08:46:36.959Z,180.30
2023-04-16T08:47:37.194Z,182.00
2023-04-16T08:48:37.399Z,181.00
2023-04-16T08:49:37.576Z,172.50
2023-04-16T08:50:37.760Z,176.80
2023-04-16T08:51:37.947Z,180.60
2023-04-16T08:52:38.148Z,179.50
2023-04-16T08:53:38.361Z,169.10
2023-04-16T08:54:38.560Z,158.20
2023-04-16T08:55:38.757Z,154.40
2023-04-16T08:56:39.482Z,158.00
2023-04-16T08:57:39.095Z,185.20
2023-04-16T08:58:39.442Z,161.10
2023-04-16T08:59:39.618Z,148.70
2023-04-16T09:00:39.815Z,134.10
2023-04-16T09:01:40.030Z,146.00
2023-04-16T09:02:40.576Z,159.50
2023-04-16T09:03:40.421Z,147.60
2023-04-16T09:04:40.771Z,140.10
2023-04-16T09:05:40.872Z,152.90
2023-04-16T09:06:41.180Z,151.30
2023-04-16T09:07:41.386Z,150.00
2023-04-16T09:08:41.568Z,157.00
2023-04-16T09:09:41.766Z,182.20
2023-04-16T09:10:41.942Z,186.10
2023-04-16T09:11:42.127Z,161.00
2023-04-16T09:12:42.344Z,163.00
2023-04-16T09:13:42.490Z,152.90
2023-04-16T09:14:42.847Z,177.40
2023-04-16T09:15:43.019Z,159.10
2023-04-16T09:16:43.320Z,154.90
2023-04-16T09:17:43.445Z,165.30
2023-04-16T09:18:43.640Z,160.80
2023-04-16T09:19:44.814Z,173.40
2023-04-16T09:20:44.117Z,180.50
2023-04-16T09:21:44.309Z,160.30
2023-04-16T09:22:44.493Z,157.50
2023-04-16T09:23:44.689Z,157.00
2023-04-16T09:24:44.891Z,159.90
2023-04-16T09:25:45.070Z,179.00
2023-04-16T09:26:45.250Z,163.40
2023-04-16T09:27:45.435Z,175.90
2023-04-16T09:28:45.618Z,181.20
2023-04-16T09:29:45.930Z,231.80
2023-04-16T09:30:46.117Z,200.10
2023-04-16T09:31:46.351Z,234.60
2023-04-16T09:32:46.493Z,213.00
2023-04-16T09:33:46.791Z,250.70
2023-04-16T09:34:46.984Z,221.60
2023-04-16T09:35:47.176Z,213.90
2023-04-16T09:36:47.357Z,202.10
2023-04-16T09:37:47.525Z,215.10
2023-04-16T09:38:47.696Z,185.50
2023-04-16T09:39:48.007Z,218.50
2023-04-16T09:40:48.237Z,204.30
2023-04-16T09:41:48.420Z,161.90
2023-04-16T09:42:48.603Z,163.60
2023-04-16T09:43:48.776Z,172.30
2023-04-16T09:44:49.146Z,164.60
2023-04-16T09:45:49.355Z,139.40
2023-04-16T09:46:49.560Z,156.10
2023-04-16T09:47:49.765Z,154.40
2023-04-16T09:48:49.964Z,155.90
2023-04-16T09:49:50.170Z,155.40
2023-04-16T09:50:50.390Z,172.50
2023-04-16T09:51:50.587Z,163.90
2023-04-16T09:52:50.761Z,153.50
2023-04-16T09:53:51.054Z,145.90
2023-04-16T09:54:51.245Z,158.50
2023-04-16T09:55:51.404Z,176.20
2023-04-16T09:56:51.596Z,174.10
2023-04-16T09:57:51.785Z,170.10
2023-04-16T09:58:51.970Z,146.10
2023-04-16T09:59:52.180Z,126.70
2023-04-16T10:00:52.434Z,142.80
2023-04-16T10:01:52.803Z,145.50
2023-04-16T10:02:52.900Z,152.00
2023-04-16T10:03:53.256Z,137.40
2023-04-16T10:04:53.524Z,155.50
2023-04-16T10:05:53.525Z,145.20
2023-04-16T10:06:53.718Z,135.90
2023-04-16T10:07:53.896Z,136.40
2023-04-16T10:08:54.076Z,134.70
2023-04-16T10:09:54.372Z,153.50
2023-04-16T10:10:54.541Z,175.40
2023-04-16T10:11:54.744Z,155.80
2023-04-16T10:12:54.919Z,170.30
2023-04-16T10:13:55.091Z,168.90
2023-04-16T10:14:55.284Z,191.80
2023-04-16T10:15:55.449Z,171.50
2023-04-16T10:16:55.688Z,149.70
2023-04-16T10:17:55.948Z,148.90
2023-04-16T10:18:56.135Z,152.90
2023-04-16T10:19:56.338Z,148.50
2023-04-16T10:20:56.545Z,155.70
2023-04-16T10:21:56.733Z,142.20
2023-04-16T10:22:56.924Z,130.40
2023-04-16T10:23:57.100Z,130.10
2023-04-16T10:24:57.306Z,159.90
2023-04-16T10:25:57.769Z,139.50
2023-04-16T10:26:57.696Z,149.80
2023-04-16T10:27:57.868Z,163.30
2023-04-16T10:28:58.026Z,144.20
2023-04-16T10:29:58.353Z,137.80
2023-04-16T10:30:58.537Z,141.40
2023-04-16T10:31:58.678Z,145.70
2023-04-16T10:33:00.461Z,146.20
2023-04-16T10:33:59.115Z,141.50
2023-04-16T10:34:59.292Z,133.90
2023-04-16T10:36:06.991Z,159.10
2023-04-16T10:37:00.738Z,134.00
2023-04-16T10:37:59.882Z,154.90
2023-04-16T10:39:00.044Z,127.40
2023-04-16T10:40:00.269Z,118.20
2023-04-16T10:41:00.407Z,144.60
2023-04-16T10:42:00.582Z,135.50
2023-04-16T10:43:00.763Z,138.80
2023-04-16T10:44:00.985Z,120.00
2023-04-16T10:45:01.182Z,114.90
2023-04-16T10:46:01.339Z,116.30
2023-04-16T10:47:01.486Z,116.50
2023-04-16T10:48:01.811Z,105.40
2023-04-16T10:49:01.973Z,109.90
2023-04-16T10:50:02.158Z,107.70
2023-04-16T10:51:02.304Z,114.00
2023-04-16T10:52:02.601Z,105.40
2023-04-16T10:53:10.141Z,115.50
2023-04-16T10:54:02.962Z,128.00
2023-04-16T10:55:03.154Z,113.30
2023-04-16T10:56:03.352Z,118.30
2023-04-16T10:57:04.475Z,126.60
2023-04-16T10:58:03.754Z,115.30
2023-04-16T10:59:04.906Z,142.30
2023-04-16T11:00:04.218Z,123.40
2023-04-16T11:01:04.354Z,136.90
2023-04-16T11:02:04.732Z,120.60
2023-04-16T11:03:04.896Z,137.90
2023-04-16T11:04:05.142Z,135.90
2023-04-16T11:05:05.240Z,139.60
2023-04-16T11:06:05.403Z,119.60
2023-04-16T11:07:05.569Z,119.30
2023-04-16T11:08:05.749Z,147.80
2023-04-16T11:09:05.908Z,132.20
2023-04-16T11:10:06.118Z,131.30
2023-04-16T11:11:06.280Z,123.20
2023-04-16T11:12:06.455Z,130.10
2023-04-16T11:13:06.624Z,115.40
2023-04-16T11:14:06.818Z,111.90
2023-04-16T11:15:07.071Z,130.00
2023-04-16T11:16:07.329Z,117.20
2023-04-16T11:17:07.382Z,133.60
2023-04-16T11:18:07.686Z,114.30
2023-04-16T11:19:07.945Z,123.30
2023-04-16T11:20:13.592Z,113.70
2023-04-16T11:21:09.301Z,121.60
2023-04-16T11:22:08.501Z,140.60
2023-04-16T11:23:08.665Z,143.20
2023-04-16T11:24:08.850Z,124.20
2023-04-16T11:25:09.045Z,106.50
2023-04-16T11:26:09.217Z,110.50
2023-04-16T11:27:09.409Z,93.10
2023-04-16T11:28:09.578Z,90.50
2023-04-16T11:29:09.918Z,91.10
2023-04-16T11:30:10.027Z,88.20
2023-04-16T11:31:10.203Z,90.90
2023-04-16T11:32:10.466Z,95.10
2023-04-16T11:33:10.645Z,84.90
2023-04-16T11:34:10.862Z,78.30
2023-04-16T11:35:11.015Z,78.20
2023-04-16T11:36:11.190Z,85.60
2023-04-16T11:37:11.350Z,75.40
2023-04-16T11:38:11.781Z,85.20
2023-04-16T11:39:12.065Z,90.70
2023-04-16T11:40:12.049Z,80.10
2023-04-16T11:41:12.197Z,81.80
2023-04-16T11:42:12.408Z,71.40
2023-04-16T11:43:12.541Z,82.80
2023-04-16T11:44:12.694Z,97.00
2023-04-16T11:45:12.876Z,74.10
2023-04-16T11:46:24.491Z,74.80
2023-04-16T11:47:14.313Z,82.50
2023-04-16T11:48:13.512Z,61.80
2023-04-16T11:49:13.913Z,78.60
2023-04-16T11:50:13.891Z,72.60
2023-04-16T11:51:13.999Z,63.20
2023-04-16T11:52:14.182Z,68.60
2023-04-16T11:53:14.352Z,68.80
2023-04-16T11:54:14.492Z,72.80
2023-04-16T11:55:14.669Z,66.10
2023-04-16T11:56:14.840Z,71.70
2023-04-16T11:57:15.000Z,67.90
2023-04-16T11:58:15.150Z,64.00
2023-04-16T11:59:15.809Z,65.40
2023-04-16T12:00:15.545Z,69.00
2023-04-16T12:01:15.710Z,57.20
2023-04-16T12:02:15.935Z,55.00
2023-04-16T12:03:16.444Z,57.10
2023-04-16T12:04:16.544Z,59.40
2023-04-16T12:05:16.525Z,71.10
2023-04-16T12:06:16.654Z,65.90
2023-04-16T12:07:16.816Z,58.70
2023-04-16T12:08:16.986Z,60.00
2023-04-16T12:09:17.156Z,63.50
2023-04-16T12:10:17.334Z,60.20
2023-04-16T12:11:17.498Z,55.50
2023-04-16T12:12:17.684Z,59.80
2023-04-16T12:13:17.844Z,63.10
2023-04-16T12:14:18.124Z,65.40
2023-04-16T12:15:18.311Z,53.50
2023-04-16T12:16:18.495Z,54.20
2023-04-16T12:17:18.683Z,56.90
2023-04-16T12:18:18.888Z,58.50
2023-04-16T12:19:19.076Z,55.90
2023-04-16T12:20:19.238Z,53.40
2023-04-16T12:21:19.412Z,49.50
2023-04-16T12:22:19.676Z,48.70
2023-04-16T12:23:19.841Z,47.80
2023-04-16T12:24:20.122Z,55.50
2023-04-16T12:25:20.293Z,48.50
2023-04-16T12:26:20.460Z,48.20
2023-04-16T12:27:20.617Z,45.60
2023-04-16T12:28:20.807Z,52.60
2023-04-16T12:29:20.999Z,44.50
2023-04-16T12:30:21.213Z,44.50
2023-04-16T12:31:21.466Z,43.90
2023-04-16T12:32:21.688Z,40.20
2023-04-16T12:33:21.808Z,48.30